createdAt,value
2023-12-09T00:03:35.445Z,-2.89
2023-12-09T00:08:39.090Z,-2.89
2023-12-09T00:13:42.312Z,-2.90
2023-12-09T00:18:46.515Z,-2.90
2023-12-09T00:23:50.160Z,-2.91
2023-12-09T00:28:53.971Z,-2.90
2023-12-09T00:33:57.232Z,-2.91
2023-12-09T00:39:00.501Z,-2.90
2023-12-09T00:44:03.798Z,-2.89
2023-12-09T00:49:07.384Z,-2.89
2023-12-09T00:54:10.745Z,-2.91
2023-12-09T00:59:13.877Z,-2.92
2023-12-09T01:04:17.638Z,-2.94
2023-12-09T01:09:21.211Z,-2.95
2023-12-09T01:14:24.686Z,-2.94
2023-12-09T01:19:28.619Z,-2.94
2023-12-09T01:24:32.371Z,-2.94
2023-12-09T01:29:37.885Z,-2.93
2023-12-09T01:34:42.229Z,-2.92
2023-12-09T01:39:45.529Z,-2.90
2023-12-09T01:44:48.532Z,-2.89
2023-12-09T01:49:52.168Z,-2.89
2023-12-09T01:54:55.566Z,-2.90
2023-12-09T01:59:58.800Z,-2.90
2023-12-09T02:05:03.649Z,-2.90
2023-12-09T02:10:07.797Z,-2.91
2023-12-09T02:15:25.943Z,-2.92
2023-12-09T02:20:31.138Z,-2.92
2023-12-09T02:25:35.667Z,-2.92
2023-12-09T02:30:51.609Z,-2.94
2023-12-09T02:35:56.619Z,-2.94
2023-12-09T02:41:00.068Z,-2.95
2023-12-09T02:46:04.010Z,-2.96
2023-12-09T02:51:08.274Z,-2.97
2023-12-09T02:56:11.950Z,-2.96
2023-12-09T03:01:15.430Z,-2.97
2023-12-09T03:06:18.960Z,-2.97
2023-12-09T03:11:22.493Z,-2.97
2023-12-09T03:16:25.857Z,-2.98
2023-12-09T03:21:29.243Z,-2.99
2023-12-09T03:26:33.257Z,-3.00
2023-12-09T03:31:42.452Z,-3.00
2023-12-09T03:36:45.665Z,-3.01
2023-12-09T03:41:48.915Z,-3.01
2023-12-09T03:46:52.438Z,-3.01
2023-12-09T03:51:55.725Z,-3.02
2023-12-09T03:56:58.977Z,-3.02
2023-12-09T04:02:02.257Z,-3.03
2023-12-09T04:07:05.470Z,-3.02
2023-12-09T04:12:08.912Z,-3.01
2023-12-09T04:17:12.283Z,-3.03
2023-12-09T04:22:15.491Z,-3.04
2023-12-09T04:27:18.859Z,-3.06
2023-12-09T04:32:22.234Z,-3.06
2023-12-09T04:37:26.138Z,-3.07
2023-12-09T04:42:32.630Z,-3.07
2023-12-09T04:47:36.363Z,-3.09
2023-12-09T04:52:39.725Z,-3.11
2023-12-09T04:57:43.068Z,-3.12
2023-12-09T05:02:46.384Z,-3.13
2023-12-09T05:07:49.686Z,-3.14
2023-12-09T05:12:52.996Z,-3.14
2023-12-09T05:17:56.291Z,-3.15
2023-12-09T05:22:59.630Z,-3.16
2023-12-09T05:28:02.933Z,-3.15
2023-12-09T05:33:06.347Z,-3.14
2023-12-09T05:38:09.884Z,-3.13
2023-12-09T05:43:13.179Z,-3.13
2023-12-09T05:48:17.037Z,-3.14
2023-12-09T06:00:04.928Z,-3.10
2023-12-09T06:05:10.291Z,-3.09
2023-12-09T06:10:14.660Z,-3.09
2023-12-09T06:15:19.509Z,-3.08
2023-12-09T06:20:23.142Z,-3.06
2023-12-09T06:25:26.318Z,-3.03
2023-12-09T06:30:30.142Z,-3.01
2023-12-09T06:35:33.695Z,-3.01
2023-12-09T06:40:36.998Z,-3.02
2023-12-09T06:45:40.229Z,-3.01
2023-12-09T06:50:44.712Z,-3.01
2023-12-09T06:55:47.947Z,-3.01
2023-12-09T07:00:51.751Z,-3.00
2023-12-09T07:05:55.131Z,-3.00
2023-12-09T07:11:00.958Z,-2.97
2023-12-09T07:16:05.356Z,-2.94
2023-12-09T07:21:08.737Z,-2.92
2023-12-09T07:26:13.660Z,-2.91
2023-12-09T07:31:17.465Z,-2.89
2023-12-09T07:36:21.501Z,-2.86
2023-12-09T07:41:24.920Z,-2.83
2023-12-09T07:46:28.737Z,-2.81
2023-12-09T07:51:32.964Z,-2.78
2023-12-09T07:56:36.398Z,-2.75
2023-12-09T08:01:43.102Z,-2.72
2023-12-09T08:06:47.164Z,-2.72
2023-12-09T08:11:53.621Z,-2.70
2023-12-09T08:16:57.822Z,-2.68
2023-12-09T08:22:01.632Z,-2.64
2023-12-09T08:27:05.444Z,-2.59
2023-12-09T08:32:10.719Z,-2.54
2023-12-09T08:37:13.921Z,-2.51
2023-12-09T08:42:17.125Z,-2.49
2023-12-09T08:47:20.744Z,-2.46
2023-12-09T08:52:24.059Z,-2.45
2023-12-09T08:57:28.631Z,-2.41
2023-12-09T09:02:33.862Z,-2.37
2023-12-09T09:07:41.721Z,-2.33
2023-12-09T09:12:45.559Z,-2.28
2023-12-09T09:17:49.293Z,-2.25
2023-12-09T09:22:52.557Z,-2.23
2023-12-09T09:27:56.201Z,-2.18
2023-12-09T09:33:00.432Z,-2.10
2023-12-09T09:38:03.783Z,-2.06
2023-12-09T09:43:13.763Z,-2.07
2023-12-09T09:48:25.681Z,-2.08
2023-12-09T09:53:38.974Z,-2.07
2023-12-09T09:58:43.726Z,-2.07
2023-12-09T10:03:47.953Z,-2.01
2023-12-09T10:08:52.524Z,-2.01
2023-12-09T10:13:55.932Z,-2.03
2023-12-09T10:18:59.254Z,-2.05
2023-12-09T10:24:05.502Z,-2.07
2023-12-09T10:29:08.831Z,-2.07
2023-12-09T10:34:14.240Z,-2.10
2023-12-09T10:39:21.018Z,-2.15
2023-12-09T10:44:24.328Z,-2.21
2023-12-09T10:49:27.799Z,-2.25
2023-12-09T10:54:31.594Z,-2.27
2023-12-09T10:59:36.281Z,-2.25
2023-12-09T11:04:40.291Z,-2.23
2023-12-09T11:09:44.683Z,-2.20
2023-12-09T11:14:48.052Z,-2.21
2023-12-09T11:19:51.561Z,-2.19
2023-12-09T11:24:55.493Z,-2.18
2023-12-09T11:30:00.784Z,-2.14
2023-12-09T11:35:06.312Z,-2.09
2023-12-09T11:40:11.394Z,-2.08
2023-12-09T11:45:16.237Z,-2.05
2023-12-09T11:50:20.474Z,-2.03
2023-12-09T11:55:24.663Z,-2.00
2023-12-09T12:00:28.167Z,-2.02
2023-12-09T12:05:33.149Z,-2.02
2023-12-09T12:10:39.033Z,-2.00
2023-12-09T12:15:43.972Z,-1.99
2023-12-09T12:20:50.070Z,-1.98
2023-12-09T12:25:55.455Z,-1.98
2023-12-09T12:31:03.410Z,-1.99
2023-12-09T12:36:07.507Z,-1.99
2023-12-09T12:41:11.155Z,-2.00
2023-12-09T12:46:14.403Z,-1.98
2023-12-09T12:51:18.595Z,-1.97
2023-12-09T12:56:22.104Z,-1.98
2023-12-09T13:01:25.467Z,-1.96
2023-12-09T13:06:29.805Z,-1.93
2023-12-09T13:11:33.543Z,-1.94
2023-12-09T13:16:38.682Z,-1.93
2023-12-09T13:21:44.451Z,-1.95
2023-12-09T13:26:48.737Z,-1.96
2023-12-09T13:31:52.304Z,-1.97
2023-12-09T13:36:56.483Z,-1.97
2023-12-09T13:41:59.970Z,-1.98
2023-12-09T13:47:03.509Z,-1.99
2023-12-09T13:52:07.230Z,-1.99
2023-12-09T13:57:11.321Z,-1.99
2023-12-09T14:02:15.086Z,-1.99
2023-12-09T14:07:19.217Z,-2.00
2023-12-09T14:12:22.548Z,-2.01
2023-12-09T14:17:26.447Z,-2.01
2023-12-09T14:22:32.546Z,-2.02
2023-12-09T14:27:37.018Z,-2.03
2023-12-09T14:32:45.812Z,-2.05
2023-12-09T14:37:52.075Z,-2.06
2023-12-09T14:42:55.771Z,-2.07
2023-12-09T14:48:04.961Z,-2.06
2023-12-09T14:53:15.625Z,-2.05
2023-12-09T14:58:19.640Z,-2.04
2023-12-09T15:03:23.118Z,-2.03
2023-12-09T15:08:27.019Z,-2.01
2023-12-09T15:13:31.917Z,-1.99
2023-12-09T15:18:35.662Z,-1.96
2023-12-09T15:23:39.249Z,-1.94
2023-12-09T15:28:42.789Z,-1.93
2023-12-09T15:33:46.489Z,-1.91
2023-12-09T15:38:50.205Z,-1.89
2023-12-09T15:43:53.440Z,-1.88
2023-12-09T15:48:57.127Z,-1.86
2023-12-09T15:54:01.024Z,-1.84
2023-12-09T15:59:04.609Z,-1.82
2023-12-09T16:04:08.553Z,-1.80
2023-12-09T16:09:14.068Z,-1.79
2023-12-09T16:14:17.497Z,-1.78
2023-12-09T16:19:20.890Z,-1.77
2023-12-09T16:24:28.952Z,-1.75
2023-12-09T16:29:32.785Z,-1.73
2023-12-09T16:34:36.306Z,-1.71
2023-12-09T16:39:40.125Z,-1.67
2023-12-09T16:44:43.722Z,-1.64
2023-12-09T16:49:47.259Z,-1.59
2023-12-09T16:54:50.775Z,-1.57
2023-12-09T16:59:54.622Z,-1.54
2023-12-09T17:04:58.949Z,-1.52
2023-12-09T17:10:02.220Z,-1.50
2023-12-09T17:15:06.770Z,-1.48
2023-12-09T17:20:10.888Z,-1.45
2023-12-09T17:25:15.019Z,-1.43
2023-12-09T17:30:19.131Z,-1.42
2023-12-09T17:35:24.220Z,-1.40
2023-12-09T17:40:27.851Z,-1.38
2023-12-09T17:45:31.268Z,-1.37
2023-12-09T17:50:34.962Z,-1.35
2023-12-09T17:55:38.559Z,-1.33
2023-12-09T18:00:42.845Z,-1.32
2023-12-09T18:05:46.408Z,-1.30
2023-12-09T18:10:49.639Z,-1.29
2023-12-09T18:15:52.883Z,-1.27
2023-12-09T18:20:56.247Z,-1.26
2023-12-09T18:26:00.282Z,-1.24
2023-12-09T18:31:04.840Z,-1.24
2023-12-09T18:36:09.701Z,-1.23
2023-12-09T18:41:13.439Z,-1.21
2023-12-09T18:46:18.002Z,-1.19
2023-12-09T18:51:21.191Z,-1.16
2023-12-09T18:56:25.964Z,-1.15
2023-12-09T19:01:30.066Z,-1.12
2023-12-09T19:06:42.205Z,-1.11
2023-12-09T19:11:53.316Z,-1.09
2023-12-09T19:16:58.224Z,-1.07
2023-12-09T19:22:02.613Z,-1.05
2023-12-09T19:27:06.870Z,-1.05
2023-12-09T19:32:10.654Z,-1.03
2023-12-09T19:37:14.110Z,-1.02
2023-12-09T19:42:19.772Z,-1.00
2023-12-09T19:47:23.358Z,-0.98
2023-12-09T19:52:26.858Z,-0.96
2023-12-09T19:57:31.242Z,-0.94
2023-12-09T20:02:36.261Z,-0.93
2023-12-09T20:07:41.311Z,-0.92
2023-12-09T20:12:44.816Z,-0.90
2023-12-09T20:17:48.368Z,-0.88
2023-12-09T20:22:51.949Z,-0.85
2023-12-09T20:27:58.276Z,-0.82
2023-12-09T20:33:02.734Z,-0.79
2023-12-09T20:38:06.682Z,-0.78
2023-12-09T20:43:12.068Z,-0.75
2023-12-09T20:48:17.670Z,-0.72
2023-12-09T20:53:21.543Z,-0.69
2023-12-09T20:58:25.425Z,-0.67
2023-12-09T21:03:29.177Z,-0.65
2023-12-09T21:08:33.014Z,-0.61
2023-12-09T21:13:36.526Z,-0.59
2023-12-09T21:18:40.055Z,-0.55
2023-12-09T21:23:44.048Z,-0.52
2023-12-09T21:28:47.415Z,-0.49
2023-12-09T21:33:50.633Z,-0.46
2023-12-09T21:38:55.949Z,-0.44
2023-12-09T21:43:59.518Z,-0.42
2023-12-09T21:49:04.422Z,-0.39
2023-12-09T21:54:08.788Z,-0.36
2023-12-09T21:59:12.163Z,-0.33
2023-12-09T22:04:15.970Z,-0.29
2023-12-09T22:09:20.322Z,-0.25
2023-12-09T22:14:24.356Z,-0.21
2023-12-09T22:19:27.811Z,-0.16
2023-12-09T22:24:31.232Z,-0.12
2023-12-09T22:29:36.480Z,-0.09
2023-12-09T22:34:39.894Z,-0.05
2023-12-09T22:39:43.459Z,-0.02
2023-12-09T22:44:46.766Z,0.02
2023-12-09T22:49:50.457Z,0.05
2023-12-09T22:54:54.153Z,0.08
2023-12-09T22:59:58.346Z,0.11
2023-12-09T23:05:01.794Z,0.14
2023-12-09T23:10:06.532Z,0.15
2023-12-09T23:15:10.812Z,0.16
2023-12-09T23:20:14.492Z,0.18
2023-12-09T23:25:18.310Z,0.20
2023-12-09T23:30:21.730Z,0.23
2023-12-09T23:35:25.136Z,0.26
2023-12-09T23:40:29.074Z,0.29
2023-12-09T23:45:33.021Z,0.32
2023-12-09T23:50:36.512Z,0.35
2023-12-09T23:55:39.711Z,0.39
